Happy Valentine's Day! 

Flight Track Log - Related Links

Times and Time Zones

All times are in EDT time to prevent confusion due to time zone crossing. See the RPA3228 flight status page for this flight to view local times or setup timezone preferences in your user account.


Time Position Orientation Groundspeed Altitude Reporting Facility
EDT Latitude Longitude Course Direction KTS MPH feet Rate Location/Type
Mon 11:46:28 AM 38.8833 -77.0667 North 133 153 1,900  Level Potomac TRACON
Mon 11:48:34 AM 38.9739 -77.1697 319° Northwest 207 238 7,500 2,791 Climbing Washington Center
Mon 11:49:00 AM 39.2139 -77.1791 339° North  Level Estimated
Mon 11:49:35 AM 39.0167 -77.2453 306° West 238 274 10,600  Level Washington Center
Mon 11:50:00 AM 39.3044 -77.2146 339° North  Level Estimated
Mon 11:51:00 AM 39.3949 -77.2503 North  Level Estimated
Mon 11:51:36 AM 39.1419 -77.3714 322° Northwest 280 322 15,600  Level Washington Center
Mon 11:53:14 AM 39.3222 -77.4031 352° North 336 387 19,300 2,165 Climbing New York Center
Mon 11:54:14 AM 39.4275 -77.4211 352° North 356 410 21,300 1,900 Climbing New York Center
Mon 11:55:14 AM 39.5392 -77.4397 353° North 386 444 23,100 1,350 Climbing New York Center
Mon 11:56:14 AM 39.6531 -77.4558 354° North 398 458 24,000 450 Climbing New York Center
Mon 11:57:14 AM 39.7717 -77.4564 360° North 411 473 24,000  Level New York Center
Mon 11:58:14 AM 39.8864 -77.4564 360° North 416 479 24,000  Level New York Center
Mon 11:59:14 AM 39.9928 -77.4936 345° North 409 471 24,000  Level New York Center
Mon 12:00:14 PM 40.0992 -77.5311 345° North 397 457 24,000  Level New York Center
Mon 12:01:14 PM 40.2053 -77.5714 344° North 397 457 24,000  Level New York Center
Mon 12:03:25 PM 40.4314 -77.6589 344° North 392 451 24,000  Level Cleveland Center
Mon 12:04:27 PM 40.5325 -77.6964 344° North 384 442 24,000  Level Cleveland Center
Mon 12:05:29 PM 40.6331 -77.7353 344° North 381 438 24,000  Level Cleveland Center
Mon 12:06:31 PM 40.7342 -77.7736 344° North 381 438 24,000  Level Cleveland Center
Mon 12:07:33 PM 40.8369 -77.8117 344° North 386 444 24,000  Level Cleveland Center
Mon 12:08:35 PM 40.9611 -77.8606 343° North 391 450 24,000  Level Cleveland Center
Mon 12:09:37 PM 41.0628 -77.8997 344° North 387 445 24,000  Level Cleveland Center
Mon 12:10:38 PM 41.1647 -77.9406 343° North 387 445 24,000  Level Cleveland Center
Mon 12:11:40 PM 41.2669 -77.9803 344° North 388 447 24,000  Level Cleveland Center
Mon 12:12:42 PM 41.3881 -78.0275 344° North 384 442 24,000  Level Cleveland Center
Mon 12:13:44 PM 41.4928 -78.0686 344° North 392 451 24,000  Level Cleveland Center
Mon 12:14:46 PM 41.5939 -78.1083 344° North 385 443 24,000  Level Cleveland Center
Mon 12:15:48 PM 41.6950 -78.1497 343° North 384 442 24,000 -48 Level Cleveland Center
Mon 12:16:50 PM 41.7961 -78.1878 344° North 381 438 23,900 -1,210 Descending Cleveland Center
Mon 12:17:52 PM 41.9164 -78.2367 343° North 379 436 21,500 -2,081 Descending Cleveland Center
Mon 12:18:54 PM 42.0114 -78.2742 344° North 365 420 19,600 -1,839 Descending Cleveland Center
Mon 12:19:56 PM 42.1061 -78.3108 344° North 358 412 17,700 -2,032 Descending Cleveland Center
Mon 12:20:58 PM 42.2050 -78.3506 343° North 348 400 15,400 -2,129 Descending Cleveland Center
Mon 12:22:00 PM 42.2889 -78.3864 342° North 322 371 13,300 -1,984 Descending Cleveland Center
Mon 12:23:02 PM 42.3647 -78.4275 338° Northwest 300 345 11,300 -1,152 Descending Cleveland Center
Mon 12:24:05 PM 42.4261 -78.4983 320° Northwest 296 341 10,900 -1,248 Descending Cleveland Center
Mon 12:25:07 PM 42.4936 -78.5800 318° Northwest 282 325 8,700 -1,984 Descending Cleveland Center
Mon 12:26:09 PM 42.5503 -78.6469 319° Northwest 263 303 6,800 -1,887 Descending Cleveland Center
Mon 12:27:11 PM 42.6022 -78.7069 320° Northwest 257 296 4,800 -1,355 Descending Cleveland Center
Mon 12:28:13 PM 42.6661 -78.7581 330° Northwest 254 292 4,000 -387 Descending Cleveland Center
Mon 12:29:15 PM 42.7292 -78.8100 329° Northwest 254 292 4,000  Level Cleveland Center
Mon 12:30:17 PM 42.7850 -78.8583 328° Northwest 231 266 4,000 -532 Level Cleveland Center
Mon 12:31:19 PM 42.8331 -78.8428 13° North 182 209 2,900 -823 Descending Cleveland Center
Mon 12:32:21 PM 42.8736 -78.8211 21° North 155 178 2,300 -600 Descending Cleveland Center
Mon 12:32:59 PM 42.8833 -78.8000 58° Northeast 124 143 1,900 -652 Descending Buffalo TRACON
Mon 12:33:53 PM 42.9167 -78.7667 36° Northeast 117 135 1,300 -667 Descending Buffalo TRACON

Login

Don't have an account? Register now (free) for customized features, flight alerts, and more!